aviador You're here:

OMAA Decoded Metar

ABU DHABI in UNITED ARAB EMIRATES
Report Time2017-09-21 19:00:00
UTC Time2017-09-21 19:30:53
Flight Rules vfr VFR
Wind010° at 06 kt
W.Decomp.*RWY 31: 3.1 kt HW 5.1 kt RCW
W.Rank010° ranks 29
Current wind is below 010° avg. (6.0)
Visibility9999 m
Phenomena:N/A
Clouds:N/A
Expected CloudBase > 8,000 ft AGL from Temp-Dew spread
CeilingNone
Temp33°C (ISA +18)
Dew Point13°C (30% RH)
Heat Index32.0°C
AAT31.8°C
QNH1002 hPa
Density Alt2,730 ft
Elevation89 ft
Report Wrong Elevation
Raw Report
METAR OMAA 211900Z 01006KT 340V070 CAVOK 33/13 Q1002 NOSIG=

Extra information for OMAA:More info

Metar Taf Metar & Taf Last 4 Metars F.Rules Stats Wind Profile Meteogram Temp Stats Airport Information Weather charts Add Link Nearby VenuesMetar ALERT Operation Metar Decoded Social comments